Time;durP1;ratioP1;P1;durP2;ratioP2;P2;SDS_P1;SDS_P2;PMS_P1;PMS_P2;Temp;Humidity;BMP_temperature;BMP_pressure;BME280_temperature;BME280_humidity;BME280_pressure;Samples;Min_cycle;Max_cycle;Signal;HPM_P1;HPM_P2
2022/08/01 00:00:30;;;;;;;4.22;2.80;;;;;;;19.76;100.00;100440.38;5220363;28;20024;-76
2022/08/01 00:03:00;;;;;;;5.40;2.67;;;;;;;19.69;100.00;100431.16;5220836;28;20017;-76
2022/08/01 00:05:31;;;;;;;5.78;3.22;;;;;;;19.65;100.00;100430.53;5220102;28;20452;-76
2022/08/01 00:08:01;;;;;;;5.00;2.80;;;;;;;19.67;100.00;100436.59;5219319;28;20044;-76
2022/08/01 00:10:32;;;;;;;6.57;3.10;;;;;;;19.77;100.00;100431.44;5219787;28;20024;-75
2022/08/01 00:13:02;;;;;;;6.13;3.22;;;;;;;19.77;100.00;100431.44;5218428;28;20052;-76
2022/08/01 00:15:33;;;;;;;5.30;2.95;;;;;;;19.68;100.00;100424.16;5220817;28;20461;-76
2022/08/01 00:18:03;;;;;;;3.80;2.80;;;;;;;19.75;100.00;100430.72;5219990;28;20028;-75
2022/08/01 00:20:34;;;;;;;5.50;2.80;;;;;;;19.79;100.00;100424.22;5219745;28;20082;-76
2022/08/01 00:23:04;;;;;;;4.70;2.65;;;;;;;19.83;100.00;100426.53;5220322;28;20032;-75
2022/08/01 00:25:35;;;;;;;6.45;2.88;;;;;;;19.78;100.00;100425.19;5216436;28;20071;-76
2022/08/01 00:28:08;;;;;;;4.20;3.05;;;;;;;19.85;100.00;100427.25;5218901;28;20025;-76
2022/08/01 00:30:38;;;;;;;4.18;2.88;;;;;;;19.79;100.00;100421.56;5220723;28;20016;-76
2022/08/01 00:33:09;;;;;;;5.90;3.05;;;;;;;19.80;100.00;100420.59;5223602;28;20025;-76
2022/08/01 00:35:39;;;;;;;5.25;3.20;;;;;;;19.82;100.00;100422.16;5219807;28;20025;-76
2022/08/01 00:38:10;;;;;;;4.97;3.20;;;;;;;19.85;100.00;100413.13;5218141;28;20039;-76
2022/08/01 00:40:41;;;;;;;3.90;2.90;;;;;;;19.87;100.00;100412.06;5218036;28;20025;-76
2022/08/01 00:43:11;;;;;;;5.00;3.15;;;;;;;19.89;100.00;100419.88;5220336;28;20091;-75
2022/08/01 00:45:42;;;;;;;5.63;3.20;;;;;;;20.05;100.00;100416.00;5209777;28;20541;-76
2022/08/01 00:48:12;;;;;;;5.10;2.90;;;;;;;20.00;100.00;100412.81;5213867;28;20564;-76
2022/08/01 00:50:43;;;;;;;3.35;2.83;;;;;;;20.10;100.00;100418.31;5218975;28;20037;-75
2022/08/01 00:53:13;;;;;;;4.25;3.10;;;;;;;20.16;100.00;100412.50;5220028;28;20063;-76
2022/08/01 00:55:44;;;;;;;5.30;2.97;;;;;;;20.14;100.00;100403.81;5219516;28;20045;-76
2022/08/01 00:58:14;;;;;;;6.60;2.97;;;;;;;20.23;100.00;100409.25;5218950;28;20068;-76
2022/08/01 01:00:45;;;;;;;4.45;2.97;;;;;;;20.11;100.00;100404.06;5222639;28;20017;-76
2022/08/01 01:03:15;;;;;;;4.15;2.97;;;;;;;20.16;100.00;100408.03;5226599;28;20672;-75
2022/08/01 01:06:11;;;;;;;4.55;2.97;;;;;;;20.11;100.00;100412.84;5223818;28;20021;-76
2022/08/01 01:08:58;;;;;;;3.77;3.20;;;;;;;20.00;100.00;100409.31;5218690;28;20517;-76
2022/08/01 01:11:37;;;;;;;6.00;3.33;;;;;;;20.07;100.00;100403.44;5223556;28;20096;-76
2022/08/01 01:14:18;;;;;;;5.63;2.80;;;;;;;20.06;100.00;100401.75;5220453;28;20103;-76
2022/08/01 01:16:49;;;;;;;3.95;2.85;;;;;;;20.12;100.00;100401.28;5222444;28;20116;-76
2022/08/01 01:19:24;;;;;;;7.20;3.20;;;;;;;20.08;100.00;100402.47;5223721;28;20432;-76
2022/08/01 01:22:17;;;;;;;5.78;3.10;;;;;;;20.07;100.00;100399.94;5224217;28;20045;-76
2022/08/01 01:25:07;;;;;;;4.90;2.90;;;;;;;20.08;100.00;100398.97;5222266;28;20029;-76
2022/08/01 01:28:01;;;;;;;4.15;2.95;;;;;;;20.04;100.00;100401.03;5219091;28;20605;-76
2022/08/01 01:30:32;;;;;;;4.35;2.80;;;;;;;20.01;100.00;100401.25;5223916;28;20374;-76
2022/08/01 01:33:06;;;;;;;6.03;2.83;;;;;;;20.19;100.00;100404.31;5223252;28;20071;-76
2022/08/01 01:35:41;;;;;;;6.97;3.00;;;;;;;20.08;100.00;100405.13;5223065;28;20458;-76
2022/08/01 01:38:18;;;;;;;4.45;2.50;;;;;;;20.16;100.00;100397.41;5222404;28;20032;-75
2022/08/01 01:40:51;;;;;;;4.35;2.80;;;;;;;20.06;100.00;100406.22;5223844;28;20086;-76
2022/08/01 01:43:23;;;;;;;6.45;3.00;;;;;;;20.04;100.00;100403.69;5223644;28;20075;-76
2022/08/01 01:45:54;;;;;;;4.78;3.10;;;;;;;20.06;100.00;100391.16;5222459;28;20055;-76
2022/08/01 01:48:26;;;;;;;4.95;3.03;;;;;;;19.97;100.00;100394.47;5222432;28;20020;-76
2022/08/01 01:50:57;;;;;;;4.65;3.13;;;;;;;19.96;100.00;100400.72;5223862;28;20095;-76
2022/08/01 01:53:30;;;;;;;5.95;3.25;;;;;;;20.00;100.00;100396.03;5223367;28;20078;-75
2022/08/01 01:56:02;;;;;;;4.25;3.42;;;;;;;19.99;100.00;100400.47;5222532;28;20020;-76
2022/08/01 01:58:35;;;;;;;7.20;3.10;;;;;;;20.09;100.00;100401.50;5222558;28;20409;-75
2022/08/01 02:01:06;;;;;;;4.32;2.78;;;;;;;20.13;100.00;100395.00;5218882;28;20055;-76
2022/08/01 02:03:39;;;;;;;4.68;2.97;;;;;;;20.19;100.00;100391.03;5226692;28;20035;-75
2022/08/01 02:06:13;;;;;;;6.22;3.30;;;;;;;20.10;100.00;100391.75;5222826;28;20017;-76
2022/08/01 02:08:45;;;;;;;4.55;3.30;;;;;;;20.09;100.00;100400.69;5220599;28;20509;-76
2022/08/01 02:11:18;;;;;;;6.95;2.97;;;;;;;20.12;100.00;100397.78;5221547;28;20020;-76
2022/08/01 02:14:00;;;;;;;7.72;3.28;;;;;;;20.03;100.00;100396.69;5223331;28;20048;-76
2022/08/01 02:16:37;;;;;;;6.65;3.28;;;;;;;20.00;100.00;100399.56;5222850;28;20642;-73
2022/08/01 02:19:09;;;;;;;5.72;3.47;;;;;;;19.92;100.00;100399.28;5219603;28;20090;-75
2022/08/01 02:21:51;;;;;;;5.90;3.35;;;;;;;20.01;100.00;100400.38;5223025;28;20035;-76
2022/08/01 02:24:34;;;;;;;4.88;3.22;;;;;;;19.89;100.00;100399.53;5223058;28;20028;-76
2022/08/01 02:27:09;;;;;;;5.78;3.28;;;;;;;20.02;100.00;100392.34;5219710;28;20025;-76
2022/08/01 02:29:53;;;;;;;4.95;3.15;;;;;;;19.99;100.00;100397.00;5221010;28;20013;-76
2022/08/01 02:32:30;;;;;;;5.55;3.72;;;;;;;20.00;100.00;100399.56;5222601;28;20044;-76
2022/08/01 02:35:03;;;;;;;11.25;3.65;;;;;;;20.04;100.00;100393.06;5226509;28;20021;-76
2022/08/01 02:37:36;;;;;;;8.85;3.40;;;;;;;19.94;100.00;100397.34;5221823;28;20548;-75
2022/08/01 02:40:09;;;;;;;5.43;3.22;;;;;;;19.89;100.00;100394.22;5218583;28;20098;-76
2022/08/01 02:42:43;;;;;;;5.95;3.33;;;;;;;19.81;100.00;100387.81;5221477;28;20111;-73
2022/08/01 02:45:14;;;;;;;4.35;3.30;;;;;;;19.80;100.00;100388.78;5222830;28;20091;-76
2022/08/01 02:47:46;;;;;;;6.55;3.45;;;;;;;19.96;100.00;100390.13;5221681;28;20031;-76
2022/08/01 02:50:18;;;;;;;5.75;3.20;;;;;;;19.89;100.00;100391.56;5221840;28;20379;-75
2022/08/01 02:52:50;;;;;;;6.80;3.20;;;;;;;20.06;100.00;100385.84;5221974;28;20112;-75
2022/08/01 02:55:22;;;;;;;5.55;3.00;;;;;;;20.08;100.00;100398.97;5222005;28;20681;-75
2022/08/01 02:57:55;;;;;;;4.15;2.58;;;;;;;19.97;100.00;100396.28;5221767;28;20067;-76
2022/08/01 03:00:27;;;;;;;4.25;2.85;;;;;;;19.95;100.00;100395.56;5220650;28;20104;-75
2022/08/01 03:03:01;;;;;;;3.90;2.88;;;;;;;20.06;100.00;100396.44;5221995;28;20036;-76
2022/08/01 03:05:34;;;;;;;4.53;3.00;;;;;;;20.08;100.00;100401.63;5221906;28;20025;-75
2022/08/01 03:08:06;;;;;;;5.65;2.50;;;;;;;20.12;100.00;100401.28;5221573;28;20025;-76
2022/08/01 03:10:39;;;;;;;5.65;2.63;;;;;;;19.97;100.00;100405.06;5221234;28;20078;-73
2022/08/01 03:13:11;;;;;;;6.50;3.17;;;;;;;20.03;100.00;100406.44;5221514;28;20025;-75
2022/08/01 03:15:43;;;;;;;4.28;2.88;;;;;;;20.03;100.00;100406.44;5221873;28;20031;-76
2022/08/01 03:18:17;;;;;;;5.75;2.95;;;;;;;19.98;100.00;100403.28;5221624;28;20424;-76
2022/08/01 03:20:49;;;;;;;5.18;3.10;;;;;;;19.95;100.00;100411.47;5221652;28;20025;-76
2022/08/01 03:23:21;;;;;;;4.95;2.95;;;;;;;19.92;100.00;100414.38;5220775;28;20047;-76
2022/08/01 03:25:52;;;;;;;5.00;2.88;;;;;;;19.92;100.00;100420.50;5221497;28;20020;-76
2022/08/01 03:28:25;;;;;;;5.30;2.88;;;;;;;19.71;100.00;100416.84;5221425;28;20686;-76
2022/08/01 03:30:57;;;;;;;4.50;2.75;;;;;;;19.80;100.00;100424.06;5221672;28;20035;-75
2022/08/01 03:33:28;;;;;;;4.22;2.95;;;;;;;19.84;100.00;100427.34;5225293;28;20052;-76
2022/08/01 03:36:00;;;;;;;4.75;2.60;;;;;;;19.85;100.00;100429.91;5220269;28;20027;-76
2022/08/01 03:38:33;;;;;;;3.70;2.70;;;;;;;19.77;100.00;100424.31;5220823;28;20029;-76
2022/08/01 03:41:20;;;;;;;3.47;2.13;;;;;;;19.68;100.00;100432.13;5221511;28;20103;-76
2022/08/01 03:44:00;;;;;;;4.35;2.10;;;;;;;19.48;100.00;100430.13;5219841;28;20025;-76
2022/08/01 03:46:44;;;;;;;4.05;2.00;;;;;;;19.53;100.00;100434.13;5220507;28;20020;-73
2022/08/01 03:49:21;;;;;;;2.97;2.13;;;;;;;19.53;100.00;100434.13;5218798;28;20656;-76
2022/08/01 03:51:53;;;;;;;4.38;2.08;;;;;;;19.50;100.00;100434.34;5221361;28;20033;-76
2022/08/01 03:54:25;;;;;;;2.53;1.80;;;;;;;19.42;100.00;100436.72;5220629;28;20027;-76
2022/08/01 03:56:58;;;;;;;2.60;1.85;;;;;;;19.58;100.00;100431.13;5219081;28;20044;-76
2022/08/01 03:59:29;;;;;;;3.95;2.15;;;;;;;19.63;100.00;100437.75;5218737;28;20033;-77
2022/08/01 04:01:59;;;;;;;4.07;2.10;;;;;;;19.61;100.00;100442.34;5221285;28;20425;-76
2022/08/01 04:04:30;;;;;;;2.33;1.73;;;;;;;19.56;100.00;100441.84;5220023;28;20025;-76
2022/08/01 04:07:06;;;;;;;3.30;2.38;;;;;;;19.59;100.00;100443.44;5220738;28;20025;-76
2022/08/01 04:09:36;;;;;;;2.72;2.13;;;;;;;19.65;100.00;100451.75;5216294;28;20642;-76
2022/08/01 04:12:07;;;;;;;5.13;2.50;;;;;;;19.69;100.00;100449.72;5221274;28;20044;-76
2022/08/01 04:14:37;;;;;;;3.28;2.30;;;;;;;19.73;100.00;100453.81;5220747;28;20021;-76
2022/08/01 04:17:07;;;;;;;3.78;2.40;;;;;;;19.57;100.00;100461.22;5220507;28;20017;-76
2022/08/01 04:19:38;;;;;;;3.47;2.70;;;;;;;19.66;100.00;100460.56;5220645;28;20058;-76
2022/08/01 04:22:10;;;;;;;4.25;2.88;;;;;;;19.59;100.00;100469.94;5220430;28;20457;-77
2022/08/01 04:24:50;;;;;;;5.45;3.00;;;;;;;19.64;100.00;100468.63;5220542;28;20075;-76
2022/08/01 04:27:25;;;;;;;3.72;2.80;;;;;;;19.70;100.00;100468.19;5220041;28;20029;-76
2022/08/01 04:29:57;;;;;;;6.05;3.17;;;;;;;19.60;100.00;100466.34;5220031;28;20016;-76
2022/08/01 04:32:31;;;;;;;5.22;3.72;;;;;;;19.68;100.00;100472.75;5220371;28;20079;-76
2022/08/01 04:35:06;;;;;;;4.30;3.15;;;;;;;19.64;100.00;100468.63;5225246;28;20486;-76
2022/08/01 04:37:37;;;;;;;4.43;3.25;;;;;;;19.63;100.00;100471.41;5226590;28;20470;-76
2022/08/01 04:40:08;;;;;;;4.70;3.50;;;;;;;19.61;100.00;100473.34;5227511;28;20371;-76
2022/08/01 04:42:39;;;;;;;6.68;4.00;;;;;;;19.62;100.00;100480.31;5227709;28;20021;-76
2022/08/01 04:45:10;;;;;;;5.00;3.67;;;;;;;19.68;100.00;100478.06;5226266;28;20025;-76
2022/08/01 04:47:42;;;;;;;5.75;4.10;;;;;;;19.72;100.00;100481.31;5227101;28;20107;-76
2022/08/01 04:50:13;;;;;;;4.68;3.45;;;;;;;19.74;100.00;100479.41;5227555;28;20020;-76
2022/08/01 04:52:43;;;;;;;4.15;2.92;;;;;;;19.69;100.00;100482.41;5227417;28;20474;-76
2022/08/01 04:55:13;;;;;;;4.00;3.20;;;;;;;19.77;100.00;100487.97;5227330;28;20029;-76
2022/08/01 04:57:46;;;;;;;4.75;3.20;;;;;;;19.82;100.00;100487.63;5225018;28;20466;-76
2022/08/01 05:00:16;;;;;;;3.50;2.78;;;;;;;19.78;100.00;100497.63;5226834;28;20032;-76
2022/08/01 05:02:47;;;;;;;4.25;3.03;;;;;;;19.86;100.00;100497.91;5226770;28;20028;-76
2022/08/01 05:05:17;;;;;;;5.65;3.00;;;;;;;19.83;100.00;100506.09;5227381;28;20031;-76
2022/08/01 05:07:48;;;;;;;4.70;3.20;;;;;;;19.81;100.00;100502.69;5226116;28;20033;-76
2022/08/01 05:10:18;;;;;;;4.32;3.40;;;;;;;19.87;100.00;100506.72;5227391;28;20024;-74
2022/08/01 05:12:48;;;;;;;4.25;3.40;;;;;;;19.85;100.00;100506.84;5227032;28;20031;-76
2022/08/01 05:15:19;;;;;;;5.05;2.92;;;;;;;19.90;100.00;100506.47;5227070;28;20106;-75
2022/08/01 05:17:49;;;;;;;5.10;3.33;;;;;;;19.87;100.00;100496.94;5226481;28;20020;-76
2022/08/01 05:20:19;;;;;;;4.10;3.10;;;;;;;19.87;100.00;100504.91;5226934;28;20129;-75
2022/08/01 05:22:49;;;;;;;4.75;3.40;;;;;;;19.96;100.00;100512.16;5227089;28;20025;-76
2022/08/01 05:25:20;;;;;;;4.40;3.30;;;;;;;19.86;100.00;100519.13;5226926;28;20114;-76
2022/08/01 05:27:50;;;;;;;4.85;3.50;;;;;;;19.77;100.00;100517.16;5225386;28;20425;-76
2022/08/01 05:30:21;;;;;;;5.65;3.70;;;;;;;19.84;100.00;100523.72;5224288;28;20429;-76
2022/08/01 05:32:51;;;;;;;4.95;3.85;;;;;;;19.93;100.00;100523.00;5225717;28;20024;-75
2022/08/01 05:35:22;;;;;;;5.38;3.58;;;;;;;19.90;100.00;100528.56;5224559;28;20032;-76
2022/08/01 05:37:52;;;;;;;4.78;3.72;;;;;;;20.02;100.00;100527.69;5223501;28;20055;-76
2022/08/01 05:40:22;;;;;;;5.88;3.70;;;;;;;20.00;100.00;100532.22;5226861;28;20033;-75
2022/08/01 05:42:53;;;;;;;5.93;4.47;;;;;;;20.04;100.00;100531.06;5226561;28;20112;-76
2022/08/01 05:45:23;;;;;;;5.80;4.15;;;;;;;20.11;100.00;100526.97;5224841;28;20028;-76
2022/08/01 05:47:53;;;;;;;6.55;4.90;;;;;;;20.13;100.00;100525.03;5223194;28;20037;-76
2022/08/01 05:50:23;;;;;;;6.72;5.32;;;;;;;20.24;100.00;100532.19;5222045;28;20120;-76
2022/08/01 05:52:54;;;;;;;8.02;5.95;;;;;;;20.33;100.00;100532.34;5224052;28;20029;-76
2022/08/01 05:55:24;;;;;;;8.13;6.30;;;;;;;20.40;100.00;100530.06;5222779;28;20037;-76
2022/08/01 05:57:54;;;;;;;8.32;6.30;;;;;;;20.37;100.00;100528.50;5221558;28;20486;-76
2022/08/01 06:00:25;;;;;;;9.60;7.43;;;;;;;20.27;100.00;100527.50;5222629;28;20098;-76
2022/08/01 06:02:55;;;;;;;8.50;6.53;;;;;;;20.28;100.00;100534.50;5225144;28;20559;-76
2022/08/01 06:05:26;;;;;;;11.93;7.10;;;;;;;20.19;100.00;100534.38;5223075;28;20029;-76
2022/08/01 06:07:57;;;;;;;8.30;6.68;;;;;;;20.06;100.00;100539.75;5221765;28;20659;-76
2022/08/01 06:10:28;;;;;;;8.90;6.72;;;;;;;20.09;100.00;100544.00;5221778;28;20024;-76
2022/08/01 06:13:02;;;;;;;8.30;6.53;;;;;;;20.11;100.00;100548.22;5221468;28;20563;-76
2022/08/01 06:15:33;;;;;;;11.45;6.78;;;;;;;20.20;100.00;100550.19;5222424;28;20059;-76
2022/08/01 06:18:04;;;;;;;8.20;6.55;;;;;;;20.41;100.00;100548.56;5222539;28;20056;-76
2022/08/01 06:20:34;;;;;;;9.18;6.70;;;;;;;20.69;100.00;100542.81;5216915;28;20039;-76
2022/08/01 06:23:05;;;;;;;8.55;5.97;;;;;;;20.70;100.00;100553.31;5222501;28;20025;-76
2022/08/01 06:25:35;;;;;;;9.50;6.55;;;;;;;20.87;100.00;100538.75;5222894;28;20040;-76
2022/08/01 06:28:06;;;;;;;8.32;6.55;;;;;;;21.12;100.00;100542.03;5221428;28;20521;-75
2022/08/01 06:30:36;;;;;;;8.73;6.25;;;;;;;20.94;100.00;100553.25;5221955;28;20029;-76
2022/08/01 06:33:06;;;;;;;9.93;6.15;;;;;;;21.13;100.00;100556.16;5222551;28;20494;-76
2022/08/01 06:35:37;;;;;;;6.20;5.05;;;;;;;21.43;100.00;100559.03;5222350;28;20016;-76
2022/08/01 06:38:07;;;;;;;10.52;5.00;;;;;;;21.82;100.00;100571.78;5222260;28;20494;-76
2022/08/01 06:40:38;;;;;;;6.57;4.45;;;;;;;22.82;100.00;100571.22;5221910;28;20021;-76
2022/08/01 06:43:08;;;;;;;6.40;4.15;;;;;;;22.79;100.00;100569.66;5222320;28;20183;-76
2022/08/01 06:45:39;;;;;;;5.15;3.90;;;;;;;22.90;100.00;100568.72;5222465;28;20025;-74
2022/08/01 06:48:10;;;;;;;5.80;3.92;;;;;;;22.90;100.00;100569.59;5221900;28;20048;-77
2022/08/01 06:50:40;;;;;;;3.53;3.00;;;;;;;22.76;100.00;100571.72;5222724;28;20516;-77
2022/08/01 06:53:10;;;;;;;3.95;2.90;;;;;;;22.62;100.00;100576.56;5221953;28;20032;-75
2022/08/01 06:55:41;;;;;;;5.15;2.63;;;;;;;22.26;100.00;100574.31;5222410;28;20025;-76
2022/08/01 06:58:11;;;;;;;3.65;2.50;;;;;;;21.96;100.00;100574.16;5221609;28;20024;-75
2022/08/01 07:00:42;;;;;;;3.80;2.10;;;;;;;21.49;100.00;100575.34;5222329;28;20033;-76
2022/08/01 07:03:12;;;;;;;3.63;1.92;;;;;;;21.13;100.00;100577.41;5222163;28;20032;-76
2022/08/01 07:05:42;;;;;;;2.53;2.03;;;;;;;21.01;100.00;100581.03;5221351;28;20033;-76
2022/08/01 07:08:13;;;;;;;2.92;1.90;;;;;;;20.83;100.00;100585.97;5221394;28;20033;-76
2022/08/01 07:10:43;;;;;;;2.75;1.85;;;;;;;20.61;100.00;100585.06;5221732;28;20372;-76
2022/08/01 07:13:16;;;;;;;2.85;2.10;;;;;;;20.59;100.00;100586.13;5221731;28;20021;-76
2022/08/01 07:15:47;;;;;;;4.05;1.80;;;;;;;20.53;100.00;100592.78;5220969;28;20037;-76
2022/08/01 07:18:17;;;;;;;2.60;1.90;;;;;;;20.53;100.00;100591.91;5221288;28;20100;-76
2022/08/01 07:20:48;;;;;;;3.28;1.88;;;;;;;20.66;100.00;100593.50;5221880;28;20116;-76
2022/08/01 07:23:19;;;;;;;3.03;1.92;;;;;;;20.67;100.00;100594.38;5221968;28;20032;-76
2022/08/01 07:25:50;;;;;;;5.35;1.80;;;;;;;20.59;100.00;100591.44;5221265;28;20033;-76
2022/08/01 07:28:21;;;;;;;3.72;1.48;;;;;;;20.45;100.00;100595.16;5221168;28;20025;-76
2022/08/01 07:30:51;;;;;;;1.15;0.98;;;;;;;20.29;100.00;100602.56;5221355;28;20032;-76
2022/08/01 07:33:22;;;;;;;3.30;1.20;;;;;;;20.36;100.00;100595.84;5221862;28;20025;-76
2022/08/01 07:35:52;;;;;;;4.13;1.45;;;;;;;20.35;100.00;100609.22;5203625;28;20033;-76
2022/08/01 07:38:22;;;;;;;0.93;0.82;;;;;;;20.08;100.00;100612.13;5219565;28;20028;-76
2022/08/01 07:40:54;;;;;;;1.55;0.90;;;;;;;20.32;100.00;100615.59;5221190;28;20029;-76
2022/08/01 07:43:25;;;;;;;1.63;0.95;;;;;;;20.51;100.00;100607.94;5221610;28;20036;-75
2022/08/01 07:45:55;;;;;;;2.55;1.10;;;;;;;20.75;100.00;100608.75;5221339;28;20028;-76
2022/08/01 07:48:25;;;;;;;1.63;0.90;;;;;;;21.30;100.00;100606.19;5220682;28;20033;-76
2022/08/01 07:50:56;;;;;;;1.30;1.00;;;;;;;21.60;100.00;100609.06;5221160;28;20506;-76
2022/08/01 07:53:26;;;;;;;1.40;0.80;;;;;;;21.97;100.00;100613.97;5220977;28;20599;-76
2022/08/01 07:55:57;;;;;;;2.15;1.02;;;;;;;21.58;100.00;100611.00;5219170;28;20025;-76
2022/08/01 07:58:27;;;;;;;6.30;1.17;;;;;;;21.68;100.00;100614.63;5219799;28;20025;-76
2022/08/01 08:00:57;;;;;;;2.17;1.08;;;;;;;21.71;100.00;100623.22;5221096;28;20029;-77
2022/08/01 08:03:28;;;;;;;1.50;1.00;;;;;;;21.94;100.00;100616.03;5220546;28;20063;-76
2022/08/01 08:05:58;;;;;;;2.75;1.05;;;;;;;22.28;100.00;100614.97;5218587;28;20025;-76
2022/08/01 08:08:28;;;;;;;3.17;1.20;;;;;;;22.54;100.00;100606.50;5219167;28;20081;-76
2022/08/01 08:10:59;;;;;;;2.28;1.40;;;;;;;22.59;100.00;100608.78;5221090;28;20075;-76
2022/08/01 08:13:29;;;;;;;2.50;1.40;;;;;;;22.53;100.00;100612.81;5220550;28;20040;-76
2022/08/01 08:15:59;;;;;;;1.27;1.05;;;;;;;22.75;100.00;100618.00;5220921;28;20112;-76
2022/08/01 08:18:29;;;;;;;1.65;1.30;;;;;;;23.00;100.00;100613.13;5219941;28;20025;-76
2022/08/01 08:21:00;;;;;;;1.65;1.15;;;;;;;22.90;100.00;100622.91;5220222;28;20032;-76
2022/08/01 08:26:19;;;;;;;1.00;0.85;;;;;;;24.00;98.90;100613.97;5219950;28;20032;-76
2022/08/01 08:28:49;;;;;;;1.80;1.00;;;;;;;24.24;96.23;100619.75;5220422;28;20032;-76
2022/08/01 08:31:20;;;;;;;2.35;0.98;;;;;;;23.94;95.16;100617.22;5221013;28;20025;-76
2022/08/01 08:33:50;;;;;;;1.67;1.00;;;;;;;23.38;94.94;100624.00;5223916;28;20024;-76
2022/08/01 08:36:20;;;;;;;1.33;0.75;;;;;;;23.20;97.57;100624.78;5220236;28;20032;-76
2022/08/01 08:38:51;;;;;;;1.70;0.80;;;;;;;23.57;94.22;100626.75;5219869;28;20099;-76
2022/08/01 08:41:22;;;;;;;1.25;0.88;;;;;;;24.03;91.38;100621.69;5220405;28;20436;-76
2022/08/01 08:43:53;;;;;;;1.08;0.60;;;;;;;23.76;92.97;100617.97;5220814;28;20032;-76
2022/08/01 08:46:26;;;;;;;3.50;0.70;;;;;;;23.68;90.35;100626.66;5219581;28;20090;-76
2022/08/01 08:48:57;;;;;;;1.02;0.63;;;;;;;23.87;88.40;100636.59;5220067;28;20029;-76
2022/08/01 08:51:31;;;;;;;1.90;0.70;;;;;;;24.24;85.71;100626.94;5220379;28;20033;-76
2022/08/01 08:54:03;;;;;;;1.35;0.80;;;;;;;24.26;87.13;100633.84;5220712;28;20079;-75
2022/08/01 08:56:35;;;;;;;0.88;0.77;;;;;;;24.07;88.39;100628.44;5220078;28;20090;-76
2022/08/01 08:59:05;;;;;;;0.80;0.60;;;;;;;23.53;88.24;100636.00;5211278;28;20032;-76
2022/08/01 09:01:35;;;;;;;0.70;0.52;;;;;;;22.69;90.35;100646.03;5220353;28;20095;-76
2022/08/01 09:04:06;;;;;;;1.35;0.80;;;;;;;23.12;89.92;100652.13;5224325;28;20059;-76
2022/08/01 09:06:36;;;;;;;0.70;0.70;;;;;;;23.29;88.37;100646.16;5219526;28;20423;-75
2022/08/01 09:09:08;;;;;;;2.17;0.70;;;;;;;23.14;88.90;100647.50;5219188;28;20100;-75
2022/08/01 09:11:38;;;;;;;1.10;0.80;;;;;;;23.22;87.86;100647.66;5219670;28;20728;-76
2022/08/01 09:14:14;;;;;;;2.45;1.00;;;;;;;22.98;89.20;100651.59;5220630;28;20107;-75
2022/08/01 09:16:45;;;;;;;;;;;;;;;22.62;91.46;100657.31;5220720;28;20104;-73
2022/08/01 09:19:18;;;;;;;2.20;1.00;;;;;;;22.55;91.95;100663.28;5219256;28;20007;-75
2022/08/01 09:22:00;;;;;;;1.00;0.90;;;;;;;22.44;94.87;100669.53;5221628;28;20111;-76
2022/08/01 09:24:32;;;;;;;1.38;1.08;;;;;;;22.59;95.50;100664.75;5224129;28;20059;-75
2022/08/01 09:27:19;;;;;;;3.22;1.30;;;;;;;22.46;96.35;100672.06;5223540;28;20402;-76
2022/08/01 09:29:51;;;;;;;1.83;1.60;;;;;;;22.26;98.36;100673.66;5220280;28;20044;-75
2022/08/01 09:32:22;;;;;;;3.83;1.60;;;;;;;22.50;98.10;100670.84;5223145;28;20115;-76
2022/08/01 09:34:52;;;;;;;3.85;1.60;;;;;;;22.33;96.97;100674.88;5227124;28;20585;-75
2022/08/01 09:37:30;;;;;;;2.75;1.70;;;;;;;22.39;97.88;100678.88;5222348;28;20039;-75
2022/08/01 09:40:00;;;;;;;3.03;1.73;;;;;;;22.22;98.66;100682.06;5222774;28;20025;-75
2022/08/01 09:42:31;;;;;;;2.20;1.38;;;;;;;22.02;99.67;100690.78;5222418;28;20021;-75
2022/08/01 09:45:01;;;;;;;1.60;1.20;;;;;;;22.06;99.88;100693.09;5222411;28;20077;-76
2022/08/01 09:47:39;;;;;;;1.60;1.20;;;;;;;22.01;99.50;100699.75;5222972;28;20033;-75
2022/08/01 09:50:09;;;;;;;1.30;1.00;;;;;;;22.26;99.62;100705.63;5219779;28;20040;-75
2022/08/01 09:52:52;;;;;;;1.52;1.00;;;;;;;22.60;97.98;100698.44;5223432;28;20338;-75
2022/08/01 09:55:23;;;;;;;1.67;1.00;;;;;;;22.63;96.98;100700.81;5222938;28;20021;-75
2022/08/01 09:58:00;;;;;;;1.30;0.88;;;;;;;22.76;94.01;100705.88;5221179;28;20020;-75
2022/08/01 10:00:32;;;;;;;1.70;0.90;;;;;;;22.95;92.98;100708.66;5221954;28;20068;-75
2022/08/01 10:03:23;;;;;;;2.38;1.00;;;;;;;23.26;92.10;100701.59;5222678;28;20063;-75
2022/08/01 10:05:53;;;;;;;0.80;0.70;;;;;;;23.34;90.73;100697.28;5222722;28;20028;-75
2022/08/01 10:08:25;;;;;;;0.80;0.50;;;;;;;24.03;89.75;100699.16;5221978;28;20037;-76
2022/08/01 10:11:11;;;;;;;2.00;0.95;;;;;;;23.86;88.10;100702.47;5205173;28;20612;-76
2022/08/01 10:13:42;;;;;;;1.88;0.50;;;;;;;25.03;86.98;100694.34;5219717;28;20021;-75
2022/08/01 10:16:12;;;;;;;1.35;0.70;;;;;;;25.11;79.75;100691.81;5222262;28;20098;-74
2022/08/01 10:18:45;;;;;;;1.83;0.80;;;;;;;24.86;80.93;100703.94;5222141;28;20108;-75
2022/08/01 10:21:16;;;;;;;1.02;0.65;;;;;;;24.52;82.77;100704.50;5222215;28;20033;-75
2022/08/01 10:23:47;;;;;;;1.85;0.77;;;;;;;24.48;84.83;100708.41;5223041;28;20032;-76
2022/08/01 10:26:18;;;;;;;2.35;0.80;;;;;;;23.88;84.40;100719.22;5223208;28;20222;-75
2022/08/01 10:28:49;;;;;;;1.50;0.80;;;;;;;23.57;87.33;100709.47;5222334;28;20055;-75
2022/08/01 10:31:20;;;;;;;1.38;0.85;;;;;;;23.63;86.60;100710.78;5222119;28;20100;-76
2022/08/01 10:33:51;;;;;;;1.00;0.90;;;;;;;23.64;87.14;100710.66;5225579;28;20447;-76
2022/08/01 10:36:23;;;;;;;1.40;0.80;;;;;;;23.69;88.10;100708.41;5220809;28;20040;-76
2022/08/01 10:38:56;;;;;;;1.13;0.80;;;;;;;23.54;85.52;100715.09;5222162;28;20044;-76
2022/08/01 10:41:29;;;;;;;0.80;0.60;;;;;;;23.73;84.45;100720.50;5222140;28;20028;-75
2022/08/01 10:44:01;;;;;;;1.00;0.88;;;;;;;23.76;85.22;100717.59;5221546;28;20437;-75
2022/08/01 10:46:32;;;;;;;1.85;0.77;;;;;;;23.63;86.13;100724.13;5221837;28;20376;-73
2022/08/01 10:49:24;;;;;;;1.63;0.80;;;;;;;23.66;85.97;100727.38;5222297;28;20033;-75
2022/08/01 10:51:55;;;;;;;1.30;0.70;;;;;;;23.55;84.69;100722.13;5221141;28;20020;-74
2022/08/01 10:54:26;;;;;;;0.70;0.70;;;;;;;23.64;85.61;100716.00;5221387;28;20112;-75
2022/08/01 10:57:00;;;;;;;2.75;0.80;;;;;;;23.25;87.84;100727.44;5221684;28;20059;-75
2022/08/01 10:59:30;;;;;;;1.13;0.70;;;;;;;23.11;87.71;100722.44;5223617;28;20097;-75
2022/08/01 11:02:04;;;;;;;1.75;0.90;;;;;;;23.20;89.30;100726.97;5220647;28;20025;-74
2022/08/01 11:05:04;;;;;;;2.15;0.82;;;;;;;23.44;86.28;100718.69;5215692;28;20039;-75
2022/08/01 11:07:51;;;;;;;1.45;0.93;;;;;;;23.68;85.33;100717.41;5219843;28;20021;-76
2022/08/01 11:10:29;;;;;;;1.20;0.85;;;;;;;23.54;83.96;100720.44;5217085;28;20486;-75
2022/08/01 11:13:03;;;;;;;1.45;0.95;;;;;;;23.37;83.76;100715.69;5221719;28;20043;-75
2022/08/01 11:15:35;;;;;;;2.40;0.95;;;;;;;24.11;84.14;100710.03;5221415;28;20025;-75
2022/08/01 11:18:30;;;;;;;1.00;0.80;;;;;;;24.55;79.55;100703.38;5217044;28;20022;-74
2022/08/01 11:21:02;;;;;;;2.23;0.97;;;;;;;24.56;81.03;100721.09;5220185;28;20112;-75
2022/08/01 11:23:47;;;;;;;0.90;0.75;;;;;;;24.26;81.23;100713.13;5220900;28;20029;-75
2022/08/01 11:26:18;;;;;;;3.50;0.80;;;;;;;23.77;82.68;100723.78;5218130;28;20525;-75
2022/08/01 11:29:12;;;;;;;1.42;0.65;;;;;;;23.43;83.36;100727.69;5221092;28;20033;-76
2022/08/01 11:31:42;;;;;;;1.73;0.70;;;;;;;23.17;85.00;100735.25;5218873;28;20036;-75
2022/08/01 11:34:12;;;;;;;1.63;0.70;;;;;;;23.17;86.05;100737.06;5220342;28;20412;-75
2022/08/01 11:36:43;;;;;;;2.10;0.82;;;;;;;23.17;85.76;100739.75;5220518;28;20017;-75
2022/08/01 11:39:15;;;;;;;1.98;0.70;;;;;;;23.10;83.59;100741.19;5221388;28;20033;-73
2022/08/01 11:41:46;;;;;;;1.67;0.70;;;;;;;23.73;85.48;100730.38;5220883;28;20027;-75
2022/08/01 11:44:22;;;;;;;1.95;0.60;;;;;;;24.06;83.36;100727.44;5220487;28;20029;-75
2022/08/01 11:46:56;;;;;;;1.48;0.70;;;;;;;24.48;80.61;100727.09;5220479;28;20104;-75